createdAt,value
2022-12-03T00:00:40.447Z,2.70
2022-12-03T00:03:08.771Z,2.70
2022-12-03T00:05:37.033Z,2.70
2022-12-03T00:08:06.877Z,2.60
2022-12-03T00:10:35.093Z,2.60
2022-12-03T00:13:03.280Z,2.60
2022-12-03T00:15:31.610Z,2.60
2022-12-03T00:17:59.814Z,2.70
2022-12-03T00:20:28.469Z,2.60
2022-12-03T00:22:56.653Z,2.60
2022-12-03T00:25:26.126Z,2.60
2022-12-03T00:27:54.291Z,2.50
2022-12-03T00:30:22.455Z,2.50
2022-12-03T00:32:50.632Z,2.50
2022-12-03T00:35:18.918Z,2.30
2022-12-03T00:37:47.139Z,2.40
2022-12-03T00:40:15.669Z,2.50
2022-12-03T00:42:45.111Z,2.40
2022-12-03T00:45:13.507Z,2.40
2022-12-03T00:47:41.615Z,2.50
2022-12-03T00:50:11.349Z,2.50
2022-12-03T00:52:39.602Z,2.50
2022-12-03T00:55:08.371Z,2.40
2022-12-03T00:57:36.524Z,2.50
2022-12-03T01:00:07.761Z,2.40
2022-12-03T01:02:36.038Z,2.50
2022-12-03T01:05:04.760Z,2.50
2022-12-03T01:07:33.073Z,2.60
2022-12-03T01:10:01.304Z,2.50
2022-12-03T01:12:29.524Z,2.60
2022-12-03T01:14:57.718Z,2.60
2022-12-03T01:17:27.382Z,2.60
2022-12-03T01:19:55.544Z,2.50
2022-12-03T01:22:23.705Z,2.60
2022-12-03T01:24:52.160Z,2.80
2022-12-03T01:27:20.563Z,2.60
2022-12-03T01:29:48.806Z,2.60
2022-12-03T01:32:19.564Z,2.70
2022-12-03T01:34:51.497Z,2.50
2022-12-03T01:37:22.359Z,2.60
2022-12-03T01:39:50.962Z,2.70
2022-12-03T01:42:22.267Z,2.70
2022-12-03T01:44:53.231Z,2.80
2022-12-03T01:47:25.430Z,2.70
2022-12-03T01:49:58.295Z,2.60
2022-12-03T01:52:30.422Z,2.60
2022-12-03T01:55:01.557Z,2.80
2022-12-03T01:57:35.762Z,2.60
2022-12-03T02:00:04.615Z,2.60
2022-12-03T02:02:34.100Z,2.60
2022-12-03T02:05:08.458Z,2.50
2022-12-03T02:07:36.695Z,2.60
2022-12-03T02:10:05.318Z,2.70
2022-12-03T02:12:35.647Z,2.70
2022-12-03T02:15:04.950Z,2.80
2022-12-03T02:17:33.397Z,2.80
2022-12-03T02:20:05.390Z,2.80
2022-12-03T02:22:45.032Z,2.80
2022-12-03T02:25:17.343Z,2.90
2022-12-03T02:27:46.521Z,3.00
2022-12-03T02:30:16.949Z,2.80
2022-12-03T02:32:45.277Z,2.80
2022-12-03T02:35:17.467Z,2.80
2022-12-03T02:37:47.403Z,2.80
2022-12-03T02:40:21.179Z,2.80
2022-12-03T02:42:51.036Z,2.70
2022-12-03T02:45:22.156Z,2.70
2022-12-03T02:47:53.620Z,2.90
2022-12-03T02:50:26.257Z,2.80
2022-12-03T02:52:56.663Z,2.90
2022-12-03T02:55:30.643Z,2.80
2022-12-03T02:58:02.922Z,2.80
2022-12-03T03:00:31.252Z,2.50
2022-12-03T03:03:00.260Z,2.60
2022-12-03T03:05:28.493Z,2.50
2022-12-03T03:08:00.266Z,2.60
2022-12-03T03:10:30.735Z,2.80
2022-12-03T03:12:59.177Z,2.60
2022-12-03T03:15:27.343Z,2.50
2022-12-03T03:17:55.830Z,2.60
2022-12-03T03:20:24.013Z,2.80
2022-12-03T03:22:52.185Z,2.80
2022-12-03T03:25:22.433Z,3.00
2022-12-03T03:27:52.086Z,3.00
2022-12-03T03:30:20.462Z,2.90
2022-12-03T03:32:48.739Z,2.90
2022-12-03T03:35:17.983Z,2.90
2022-12-03T03:37:46.323Z,2.90
2022-12-03T03:40:14.678Z,2.80
2022-12-03T03:42:43.056Z,2.90
2022-12-03T03:45:12.762Z,2.80
2022-12-03T03:47:41.708Z,2.80
2022-12-03T03:50:11.934Z,2.50
2022-12-03T03:52:41.286Z,2.50
2022-12-03T03:55:11.295Z,2.50
2022-12-03T03:57:39.900Z,2.30
2022-12-03T04:00:10.211Z,2.40
2022-12-03T04:02:39.775Z,2.50
2022-12-03T04:05:08.826Z,2.70
2022-12-03T04:07:37.101Z,2.60
2022-12-03T04:10:26.320Z,2.50
2022-12-03T04:12:57.386Z,2.50
2022-12-03T04:15:26.448Z,2.40
2022-12-03T04:18:28.211Z,2.40
2022-12-03T04:21:16.869Z,2.50
2022-12-03T04:23:44.094Z,2.40
2022-12-03T04:26:29.831Z,2.40
2022-12-03T04:28:58.061Z,2.40
2022-12-03T04:31:43.750Z,2.40
2022-12-03T04:34:30.966Z,2.60
2022-12-03T04:36:59.228Z,2.60
2022-12-03T04:39:27.363Z,2.50
2022-12-03T04:41:55.566Z,2.50
2022-12-03T04:44:36.698Z,2.40
2022-12-03T04:47:08.018Z,2.40
2022-12-03T04:49:40.767Z,2.40
2022-12-03T04:52:10.114Z,2.40
2022-12-03T04:54:38.376Z,2.30
2022-12-03T04:57:07.663Z,2.40
2022-12-03T04:59:36.131Z,2.40
2022-12-03T05:02:04.805Z,2.50
2022-12-03T05:04:34.143Z,2.50
2022-12-03T05:07:03.818Z,2.60
2022-12-03T05:09:33.894Z,2.70
2022-12-03T05:12:02.135Z,2.70
2022-12-03T05:14:30.306Z,2.60
2022-12-03T05:16:58.538Z,2.80
2022-12-03T05:19:46.666Z,2.80
2022-12-03T05:22:15.319Z,2.80
2022-12-03T05:24:43.528Z,2.90
2022-12-03T05:27:11.692Z,3.10
2022-12-03T05:29:39.813Z,3.10
2022-12-03T05:32:08.011Z,3.10
2022-12-03T05:34:36.197Z,3.00
2022-12-03T05:37:04.362Z,2.80
2022-12-03T05:39:33.903Z,2.70
2022-12-03T05:42:24.915Z,2.30
2022-12-03T05:44:53.370Z,2.30
2022-12-03T05:47:21.793Z,2.30
2022-12-03T05:49:49.987Z,2.50
2022-12-03T05:52:18.122Z,2.50
2022-12-03T05:54:47.651Z,2.40
2022-12-03T05:57:15.803Z,2.30
2022-12-03T05:59:43.981Z,2.30
2022-12-03T06:02:12.753Z,2.30
2022-12-03T06:04:41.001Z,2.40
2022-12-03T06:07:13.744Z,2.60
2022-12-03T06:09:42.297Z,2.50
2022-12-03T06:12:11.794Z,2.60
2022-12-03T06:14:40.001Z,2.70
2022-12-03T06:17:08.252Z,2.70
2022-12-03T06:19:36.458Z,2.80
2022-12-03T06:22:04.690Z,2.60
2022-12-03T06:24:33.046Z,2.70
2022-12-03T06:27:01.211Z,2.60
2022-12-03T06:29:30.749Z,2.50
2022-12-03T06:31:59.041Z,2.50
2022-12-03T06:34:27.202Z,2.50
2022-12-03T06:36:55.503Z,2.50
2022-12-03T06:39:23.827Z,2.50
2022-12-03T06:41:51.990Z,2.60
2022-12-03T06:44:20.203Z,2.60
2022-12-03T06:46:49.778Z,2.60
2022-12-03T06:49:17.997Z,2.80
2022-12-03T06:51:46.151Z,2.70
2022-12-03T06:54:14.347Z,2.60
2022-12-03T06:56:45.373Z,2.50
2022-12-03T06:59:13.904Z,2.60
2022-12-03T07:01:42.165Z,2.70
2022-12-03T07:04:11.806Z,2.50
2022-12-03T07:06:39.918Z,2.60
2022-12-03T07:09:08.097Z,2.60
2022-12-03T07:11:40.696Z,2.60
2022-12-03T07:14:11.142Z,2.50
2022-12-03T07:16:40.339Z,2.70
2022-12-03T07:19:08.771Z,2.70
2022-12-03T07:21:38.594Z,2.60
2022-12-03T07:24:08.329Z,2.70
2022-12-03T07:26:36.649Z,2.70
2022-12-03T07:29:04.950Z,2.60
2022-12-03T07:31:33.276Z,2.60
2022-12-03T07:34:02.163Z,2.70
2022-12-03T07:36:30.318Z,2.60
2022-12-03T07:38:59.797Z,2.70
2022-12-03T07:41:27.983Z,2.70
2022-12-03T07:43:56.135Z,2.80
2022-12-03T07:46:24.456Z,2.90
2022-12-03T07:48:52.670Z,3.00
2022-12-03T07:51:20.896Z,3.00
2022-12-03T07:53:49.153Z,3.10
2022-12-03T07:56:18.735Z,3.00
2022-12-03T07:58:46.858Z,3.00
2022-12-03T08:01:15.035Z,2.80
2022-12-03T08:03:43.547Z,2.80
2022-12-03T08:06:11.740Z,2.90
2022-12-03T08:08:39.901Z,3.00
2022-12-03T08:11:11.035Z,3.10
2022-12-03T08:13:40.571Z,3.20
2022-12-03T08:16:16.800Z,3.30
2022-12-03T08:18:45.580Z,3.30
2022-12-03T08:21:15.775Z,3.20
2022-12-03T08:23:44.315Z,3.10
2022-12-03T08:26:20.183Z,3.00
2022-12-03T08:28:50.160Z,3.10
2022-12-03T08:31:20.904Z,3.10
2022-12-03T08:33:51.205Z,3.30
2022-12-03T08:36:22.869Z,3.30
2022-12-03T08:38:52.943Z,3.40
2022-12-03T08:41:35.902Z,3.30
2022-12-03T08:44:21.338Z,3.30
2022-12-03T08:46:53.829Z,3.40
2022-12-03T08:49:23.649Z,3.50
2022-12-03T08:51:57.167Z,3.50
2022-12-03T08:54:26.342Z,3.30
2022-12-03T08:56:55.571Z,3.30
2022-12-03T08:59:30.146Z,3.20
2022-12-03T09:01:59.552Z,3.50
2022-12-03T09:04:32.043Z,3.50
2022-12-03T09:07:00.456Z,3.30
2022-12-03T09:09:29.678Z,3.00
2022-12-03T09:11:57.927Z,3.00
2022-12-03T09:14:27.393Z,3.00
2022-12-03T09:16:56.301Z,3.10
2022-12-03T09:19:24.982Z,3.20
2022-12-03T09:21:53.602Z,3.30
2022-12-03T09:24:22.122Z,3.60
2022-12-03T09:26:50.365Z,3.80
2022-12-03T09:29:18.588Z,3.60
2022-12-03T09:31:48.242Z,3.70
2022-12-03T09:34:16.722Z,3.60
2022-12-03T09:36:44.858Z,3.70
2022-12-03T09:39:13.003Z,3.50
2022-12-03T09:41:41.390Z,3.50
2022-12-03T09:44:17.151Z,3.50
2022-12-03T09:46:48.213Z,3.40
2022-12-03T09:49:18.810Z,3.60
2022-12-03T09:51:47.541Z,3.50
2022-12-03T09:54:24.730Z,3.50
2022-12-03T09:56:53.677Z,3.60
2022-12-03T09:59:22.819Z,3.90
2022-12-03T10:01:53.996Z,3.50
2022-12-03T10:04:22.846Z,3.50
2022-12-03T10:06:51.573Z,3.70
2022-12-03T10:09:25.366Z,3.80
2022-12-03T10:11:53.730Z,3.80
2022-12-03T10:14:21.991Z,3.80
2022-12-03T10:16:50.679Z,4.00
2022-12-03T10:19:24.606Z,3.90
2022-12-03T10:21:52.856Z,3.60
2022-12-03T10:24:26.836Z,3.60
2022-12-03T10:26:57.599Z,3.50
2022-12-03T10:29:33.156Z,3.60
2022-12-03T10:32:04.184Z,3.50
2022-12-03T10:34:35.124Z,3.60
2022-12-03T10:37:18.962Z,3.80
2022-12-03T10:40:08.283Z,3.70
2022-12-03T10:42:38.492Z,3.70
2022-12-03T10:45:15.474Z,3.60
2022-12-03T10:47:44.504Z,3.80
2022-12-03T10:50:20.474Z,4.00
2022-12-03T10:52:48.979Z,4.00
2022-12-03T10:55:17.669Z,3.70
2022-12-03T10:57:47.039Z,3.60
2022-12-03T11:00:20.055Z,3.70
2022-12-03T11:02:56.119Z,3.70
2022-12-03T11:05:29.185Z,3.80
2022-12-03T11:07:57.874Z,3.70
2022-12-03T11:10:26.433Z,3.90
2022-12-03T11:13:30.346Z,4.00
2022-12-03T11:16:00.071Z,4.30
2022-12-03T11:18:59.396Z,4.40
2022-12-03T11:21:29.343Z,4.60
2022-12-03T11:24:18.773Z,4.70
2022-12-03T11:27:17.546Z,4.80
2022-12-03T11:30:00.808Z,4.90
2022-12-03T11:33:01.551Z,5.10
2022-12-03T11:35:37.472Z,4.90
2022-12-03T11:38:52.425Z,4.50
2022-12-03T11:41:33.187Z,4.50
2022-12-03T11:44:29.348Z,4.50
2022-12-03T11:46:59.941Z,4.30
2022-12-03T11:49:40.465Z,4.40
2022-12-03T11:52:29.136Z,4.10
2022-12-03T11:55:05.076Z,3.80
2022-12-03T11:57:39.653Z,3.90
2022-12-03T12:00:20.674Z,3.90
2022-12-03T12:02:50.132Z,4.10
2022-12-03T12:05:24.299Z,4.30
2022-12-03T12:07:53.379Z,4.40
2022-12-03T12:10:44.164Z,4.40
2022-12-03T12:13:51.937Z,4.60
2022-12-03T12:16:51.124Z,4.70
2022-12-03T12:19:33.990Z,4.80
2022-12-03T12:22:34.491Z,4.80
2022-12-03T12:25:03.420Z,4.80
2022-12-03T12:27:36.312Z,4.70
2022-12-03T12:30:07.930Z,4.60
2022-12-03T12:32:42.529Z,4.80
2022-12-03T12:35:16.991Z,4.60
2022-12-03T12:37:58.103Z,4.80
2022-12-03T12:40:30.331Z,4.80
2022-12-03T12:43:03.208Z,5.00
2022-12-03T12:45:38.876Z,4.90
2022-12-03T12:48:16.731Z,5.00
2022-12-03T12:50:48.063Z,5.20
2022-12-03T12:53:23.763Z,5.50
2022-12-03T12:55:57.017Z,5.20
2022-12-03T12:58:29.170Z,5.20
2022-12-03T13:00:59.411Z,5.00
2022-12-03T13:03:30.411Z,4.90
2022-12-03T13:05:58.622Z,4.60
2022-12-03T13:08:29.816Z,4.50
2022-12-03T13:10:59.624Z,4.50
2022-12-03T13:13:31.996Z,4.50
2022-12-03T13:16:02.561Z,4.60
2022-12-03T13:18:39.303Z,4.50
2022-12-03T13:21:38.369Z,4.20
2022-12-03T13:24:33.556Z,4.00
2022-12-03T13:27:06.039Z,3.90
2022-12-03T13:29:35.703Z,4.10
2022-12-03T13:32:12.638Z,4.00
2022-12-03T13:34:41.548Z,4.20
2022-12-03T13:37:14.945Z,4.30
2022-12-03T13:39:47.453Z,4.40
2022-12-03T13:42:41.536Z,4.40
2022-12-03T13:45:32.204Z,4.40
2022-12-03T13:48:02.242Z,4.10
2022-12-03T13:50:35.895Z,3.80
2022-12-03T13:53:15.014Z,3.80
2022-12-03T13:55:46.820Z,3.90
2022-12-03T13:58:15.069Z,3.60
2022-12-03T14:00:45.083Z,3.80
2022-12-03T14:03:13.654Z,4.00
2022-12-03T14:05:41.886Z,4.10
2022-12-03T14:08:10.222Z,3.80
2022-12-03T14:10:38.431Z,3.80
2022-12-03T14:13:06.662Z,3.90
2022-12-03T14:15:34.859Z,3.90
2022-12-03T14:18:04.650Z,4.00
2022-12-03T14:20:34.402Z,3.80
2022-12-03T14:23:02.586Z,3.70
2022-12-03T14:25:30.984Z,3.90
2022-12-03T14:28:00.716Z,4.00
2022-12-03T14:30:28.887Z,3.90
2022-12-03T14:32:57.203Z,4.00
2022-12-03T14:35:26.732Z,4.00
2022-12-03T14:37:54.900Z,3.80
2022-12-03T14:40:23.267Z,3.70
2022-12-03T14:42:51.821Z,3.60
2022-12-03T14:45:20.767Z,3.80
2022-12-03T14:47:48.974Z,3.60
2022-12-03T14:50:17.233Z,3.60
2022-12-03T14:52:46.810Z,3.80
2022-12-03T14:55:15.222Z,3.80
2022-12-03T14:57:43.480Z,3.60
2022-12-03T15:00:12.895Z,3.70
2022-12-03T15:02:41.227Z,3.70
2022-12-03T15:05:09.726Z,3.70
2022-12-03T15:07:39.416Z,3.60
2022-12-03T15:10:10.299Z,3.70
2022-12-03T15:12:38.682Z,3.70
2022-12-03T15:15:08.047Z,3.70
2022-12-03T15:17:36.348Z,3.60
2022-12-03T15:20:05.665Z,3.60
2022-12-03T15:22:33.943Z,3.70
2022-12-03T15:25:03.451Z,3.50
2022-12-03T15:27:33.117Z,3.60
2022-12-03T15:30:01.361Z,3.40
2022-12-03T15:32:29.874Z,3.50
2022-12-03T15:34:58.206Z,3.40
2022-12-03T15:37:27.981Z,3.50
2022-12-03T15:39:56.597Z,3.40
2022-12-03T15:42:25.003Z,3.70
2022-12-03T15:44:54.649Z,3.50
2022-12-03T15:47:22.893Z,3.50
2022-12-03T15:49:51.373Z,3.60
2022-12-03T15:52:19.962Z,3.60
2022-12-03T15:54:49.476Z,3.50
2022-12-03T15:57:17.743Z,3.60
2022-12-03T15:59:46.024Z,3.70
2022-12-03T16:02:15.743Z,3.50
2022-12-03T16:04:44.085Z,3.70
2022-12-03T16:07:12.388Z,3.70
2022-12-03T16:09:40.692Z,3.60
2022-12-03T16:12:08.940Z,3.30
2022-12-03T16:14:37.237Z,3.50
2022-12-03T16:17:05.522Z,3.60
2022-12-03T16:19:35.971Z,3.70
2022-12-03T16:22:04.607Z,3.70
2022-12-03T16:24:32.891Z,3.80
2022-12-03T16:27:01.160Z,3.50
2022-12-03T16:29:30.488Z,3.50
2022-12-03T16:31:58.747Z,3.40
2022-12-03T16:34:28.077Z,3.50
2022-12-03T16:36:57.827Z,3.50
2022-12-03T16:39:26.125Z,3.80
2022-12-03T16:41:56.908Z,3.40
2022-12-03T16:44:32.740Z,3.40
2022-12-03T16:47:01.739Z,3.40
2022-12-03T16:49:30.008Z,3.30
2022-12-03T16:51:59.657Z,3.50
2022-12-03T16:54:27.875Z,3.50
2022-12-03T16:56:56.476Z,3.40
2022-12-03T16:59:24.870Z,3.30
2022-12-03T17:01:53.568Z,3.40
2022-12-03T17:04:21.999Z,3.50
2022-12-03T17:06:50.318Z,3.60
2022-12-03T17:09:19.877Z,3.50
2022-12-03T17:11:48.177Z,3.40
2022-12-03T17:14:16.450Z,3.60
2022-12-03T17:16:44.755Z,3.50
2022-12-03T17:19:12.899Z,3.50
2022-12-03T17:21:41.342Z,3.40
2022-12-03T17:24:09.924Z,3.50
2022-12-03T17:26:41.779Z,3.40
2022-12-03T17:29:09.966Z,3.30
2022-12-03T17:31:41.922Z,3.40
2022-12-03T17:34:10.662Z,3.40
2022-12-03T17:36:39.001Z,3.40
2022-12-03T17:39:07.434Z,3.30
2022-12-03T17:41:35.642Z,3.40
2022-12-03T17:44:10.166Z,3.50
2022-12-03T17:46:39.995Z,3.60
2022-12-03T17:49:08.294Z,3.60
2022-12-03T17:51:36.606Z,3.50
2022-12-03T17:54:05.009Z,3.40
2022-12-03T17:56:33.287Z,3.50
2022-12-03T17:59:01.447Z,3.30
2022-12-03T18:01:32.148Z,3.40
2022-12-03T18:04:00.497Z,3.50
2022-12-03T18:06:28.740Z,3.40
2022-12-03T18:08:57.239Z,3.40
2022-12-03T18:11:25.631Z,3.40
2022-12-03T18:13:53.917Z,3.50
2022-12-03T18:16:22.209Z,3.50
2022-12-03T18:18:56.352Z,3.50
2022-12-03T18:21:28.164Z,3.50
2022-12-03T18:23:56.632Z,3.40
2022-12-03T18:26:24.876Z,3.30
2022-12-03T18:28:53.470Z,3.30
2022-12-03T18:31:23.302Z,3.20
2022-12-03T18:33:53.585Z,3.20
2022-12-03T18:36:24.347Z,3.30
2022-12-03T18:38:55.408Z,3.50
2022-12-03T18:41:25.452Z,3.40
2022-12-03T18:43:53.724Z,3.30
2022-12-03T18:49:11.815Z,3.30
2022-12-03T18:51:40.034Z,3.40
2022-12-03T18:54:12.350Z,3.50
2022-12-03T18:56:40.901Z,3.40
2022-12-03T18:59:09.485Z,3.10
2022-12-03T19:01:37.780Z,3.00
2022-12-03T19:04:06.152Z,3.10
2022-12-03T19:06:35.695Z,3.00
2022-12-03T19:09:03.961Z,2.90
2022-12-03T19:11:33.956Z,2.90
2022-12-03T19:14:02.931Z,3.00
2022-12-03T19:16:31.238Z,2.90
2022-12-03T19:18:59.497Z,3.00
2022-12-03T19:21:33.344Z,3.20
2022-12-03T19:24:23.925Z,3.20
2022-12-03T19:26:54.530Z,3.00
2022-12-03T19:29:23.317Z,3.00
2022-12-03T19:31:52.115Z,3.10
2022-12-03T19:34:20.595Z,3.20
2022-12-03T19:36:49.068Z,3.00
2022-12-03T19:39:18.838Z,2.90
2022-12-03T19:41:47.080Z,3.00
2022-12-03T19:44:16.772Z,3.00
2022-12-03T19:46:45.365Z,3.00
2022-12-03T19:49:13.547Z,3.00
2022-12-03T19:51:41.712Z,3.10
2022-12-03T19:54:13.074Z,3.00
2022-12-03T19:56:43.000Z,3.10
2022-12-03T19:59:13.243Z,2.90
2022-12-03T20:01:43.336Z,2.90
2022-12-03T20:04:12.830Z,3.00
2022-12-03T20:06:41.314Z,2.80
2022-12-03T20:09:12.134Z,2.90
2022-12-03T20:11:44.448Z,3.00
2022-12-03T20:14:15.642Z,2.90
2022-12-03T20:16:44.561Z,2.80
2022-12-03T20:19:18.766Z,2.90
2022-12-03T20:21:47.258Z,3.00
2022-12-03T20:24:18.108Z,3.10
2022-12-03T20:26:47.646Z,3.00
2022-12-03T20:29:15.807Z,3.00
2022-12-03T20:31:44.088Z,2.90
2022-12-03T20:34:12.819Z,2.90
2022-12-03T20:36:41.008Z,3.00
2022-12-03T20:39:09.334Z,3.00
2022-12-03T20:41:38.104Z,2.70
2022-12-03T20:44:07.905Z,2.60
2022-12-03T20:46:36.617Z,2.70
2022-12-03T20:49:06.589Z,2.80
2022-12-03T20:51:34.795Z,2.70
2022-12-03T20:54:03.586Z,2.70
2022-12-03T20:56:34.598Z,2.70
2022-12-03T20:59:04.776Z,2.70
2022-12-03T21:01:36.075Z,2.90
2022-12-03T21:04:05.576Z,2.90
2022-12-03T21:06:34.875Z,3.00
2022-12-03T21:09:04.537Z,3.00
2022-12-03T21:11:35.766Z,2.90
2022-12-03T21:14:05.072Z,2.70
2022-12-03T21:17:06.457Z,2.60
2022-12-03T21:19:27.524Z,2.70
2022-12-03T21:21:55.663Z,2.90
2022-12-03T21:24:23.803Z,2.70
2022-12-03T21:26:51.948Z,2.70
2022-12-03T21:29:20.183Z,2.60
2022-12-03T21:31:49.729Z,2.60
2022-12-03T21:34:17.922Z,2.70
2022-12-03T21:36:46.103Z,2.80
2022-12-03T21:39:14.556Z,3.00
2022-12-03T21:42:18.830Z,2.70
2022-12-03T21:44:31.200Z,2.70
2022-12-03T21:47:10.098Z,2.60
2022-12-03T21:49:42.413Z,2.90
2022-12-03T21:52:10.965Z,2.70
2022-12-03T21:54:39.221Z,2.50
2022-12-03T21:57:07.389Z,2.40
2022-12-03T21:59:35.622Z,2.40
2022-12-03T22:02:05.308Z,2.50
2022-12-03T22:04:33.567Z,2.50
2022-12-03T22:07:01.769Z,2.50
2022-12-03T22:09:30.922Z,2.70
2022-12-03T22:12:00.840Z,2.50
2022-12-03T22:14:29.443Z,2.40
2022-12-03T22:16:57.611Z,2.50
2022-12-03T22:19:27.907Z,2.30
2022-12-03T22:21:56.091Z,2.50
2022-12-03T22:24:24.255Z,2.40
2022-12-03T22:26:54.657Z,2.20
2022-12-03T22:29:23.128Z,2.20
2022-12-03T22:31:51.311Z,2.20
2022-12-03T22:34:19.504Z,2.40
2022-12-03T22:36:49.016Z,2.30
2022-12-03T22:39:17.277Z,2.40
2022-12-03T22:41:45.457Z,2.40
2022-12-03T22:44:13.898Z,2.40
2022-12-03T22:46:42.287Z,2.40
2022-12-03T22:49:10.846Z,2.60
2022-12-03T22:51:39.048Z,2.60
2022-12-03T22:54:08.614Z,2.50
2022-12-03T22:56:37.353Z,2.60
2022-12-03T22:59:06.196Z,2.70
2022-12-03T23:01:36.125Z,2.70
2022-12-03T23:04:05.486Z,2.40
2022-12-03T23:06:35.856Z,2.40
2022-12-03T23:09:05.086Z,2.40
2022-12-03T23:11:34.951Z,2.40
2022-12-03T23:14:03.265Z,2.40
2022-12-03T23:16:33.548Z,2.30
2022-12-03T23:19:03.159Z,2.50
2022-12-03T23:21:34.011Z,2.60
2022-12-03T23:24:03.581Z,2.60
2022-12-03T23:26:34.393Z,2.50
2022-12-03T23:29:04.292Z,2.50
2022-12-03T23:31:33.946Z,2.70
2022-12-03T23:34:03.142Z,2.50
2022-12-03T23:36:33.002Z,2.50
2022-12-03T23:39:01.562Z,2.40
2022-12-03T23:41:29.768Z,2.30
2022-12-03T23:43:58.088Z,2.50
2022-12-03T23:46:28.941Z,2.40
2022-12-03T23:48:59.470Z,2.40
2022-12-03T23:51:28.072Z,2.40
2022-12-03T23:53:56.744Z,2.60
2022-12-03T23:56:26.698Z,2.20
2022-12-03T23:58:54.950Z,2.20
